Rejestracja

Wszystkie dane podawane są w czasie UTC za wyjątkiem miejsc gdzie jest jednoznacznie podane, że jest inaczej. Dane podawane w serwisie mają charakter informacyjny!!!
Informacje w sprawie dostępu do serwisu pod numerem tel. +48 22 68-28-138, CA MON (828-138)!!!
W związku z zaplanowanymi pracami konserwacyjnymi, mogą wystąpić utrudnienia z dostępem do domeny meteo.mil.pl . W przypadku wystąpienia problemów prosimy skorzystać z adresów IP: serwis www - http://91.208.93.188 , serwer pocztowy - https://91.208.93.189

Aktualna Pogoda
 
Pogoda w Polsce
4°C Szczecin 2°C Suwałki 3°C Warszawa 4°C Poznan
4°C Opole 3°C Kraków 3°C Rzeszów
Więcej miast w Polsce

Pogoda w Europie
6°C Berlin 6°C Paryz 4°C Bruksela -5°C Oslo
4°C Praga 2°C Zagrzeb
Więcej miast w Europie

Metary wojskowe test
METAR EPBC 210600Z 28018KT 9999 -SHRA BKN015 03/03 Q1011=
METAR EPCE 210630Z 26011KT 9999 SCT017 02/00 Q1010 RMK 019 090 4/4=
METAR EPDA 210630Z 28016KT 250V310 9999 FEW020 BKN229 06/02 Q1013 RMK 059 077 5/2=
METAR EPDE 210630Z 27016KT 9999 BKN014 OVC040 03/01 Q1011 RMK 027 086 8/5=
METAR EPIR 210630Z 26016KT 9999 FEW020 03/01 Q1013 RMK 027 087 2/2=
METAR EPKS 210630Z 28016G26KT 9999 BKN020 BKN033 03/01 Q1016 RMK 033 084 7/5=
METAR EPLK 210630Z 28013KT 9999 BKN035 02/01 Q1015 RMK 024 089 7/7=
METAR EPLY 210600Z 28014KT 9999 BKN020 BKN033 04/01 Q1015 RMK 036 085 7/5=
METAR EPMB 210630Z 27010KT 9999 FEW022 02/M00 Q1010 RMK 018 087 2/2=
METAR EPMI 210600Z 29012G20KT 9999 BKN016 03/01 Q1015 RMK 028 085 7/7=
METAR EPMM 210630Z 28014KT 9999 SCT008 BKN012 02/01 Q1009 RMK 019 091 6/4=
METAR EPOK 210630Z 28017KT CAVOK 03/01 Q1009 RMK 025 088 1/1=
METAR EPPR 210600Z 27012KT 9999 FEW017 03/00 Q1009 RMK 027 085 2/2=
METAR EPPW 210630Z 28016KT 9999 SCT033 04/00 Q1015 RMK 036 077 6/6=
METAR EPSN 210630Z 27016KT 9999 BKN015 03/02 Q1014 RMK 030 090 6/6=
METAR EPTM 210600Z 27012KT 9999 SCT022 OVC041 03/M00 Q1013 RMK 026 082 8/3=


 
Informacje ogólne
Pogoda
Warszawa
Temperatura: 3.4°C
Wiatr: 8.0 m/s
Ciśnienie: 1011.0 hPa
Zjawiska: Brak
Temp. max: 3.8 °C
Temp. min: 2.4 °C


Dane astronomiczne
Warszawa:
Dzien: 07:43 h
Noc: 16:17 h


Using HW VSP powered by HW group.

Prawa autorskie©2007 SSH SZ RP. Wszelkie prawa zastrzeżone.